sensor_id;sensor_type;location;lat;lon;timestamp;temperature;humidity
58519;DHT22;44310;48.106;12.008;2023-05-10T00:00:55;18.40;87.60
58519;DHT22;44310;48.106;12.008;2023-05-10T00:03:22;18.60;88.30
58519;DHT22;44310;48.106;12.008;2023-05-10T00:05:50;18.60;88.20
58519;DHT22;44310;48.106;12.008;2023-05-10T00:08:17;18.60;87.70
58519;DHT22;44310;48.106;12.008;2023-05-10T00:10:44;18.60;88.00
58519;DHT22;44310;48.106;12.008;2023-05-10T00:13:11;18.60;87.90
58519;DHT22;44310;48.106;12.008;2023-05-10T00:15:38;18.60;87.70
58519;DHT22;44310;48.106;12.008;2023-05-10T00:18:05;18.60;87.70
58519;DHT22;44310;48.106;12.008;2023-05-10T00:20:33;18.60;87.70
58519;DHT22;44310;48.106;12.008;2023-05-10T00:23:00;18.60;87.80
58519;DHT22;44310;48.106;12.008;2023-05-10T00:25:27;18.50;87.70
58519;DHT22;44310;48.106;12.008;2023-05-10T00:27:54;18.60;87.90
58519;DHT22;44310;48.106;12.008;2023-05-10T00:30:24;18.60;87.90
58519;DHT22;44310;48.106;12.008;2023-05-10T00:32:51;18.50;88.00
58519;DHT22;44310;48.106;12.008;2023-05-10T00:35:18;18.90;88.30
58519;DHT22;44310;48.106;12.008;2023-05-10T00:37:45;18.50;88.10
58519;DHT22;44310;48.106;12.008;2023-05-10T00:40:13;18.50;88.20
58519;DHT22;44310;48.106;12.008;2023-05-10T00:42:40;18.60;89.10
58519;DHT22;44310;48.106;12.008;2023-05-10T00:45:08;18.60;89.60
58519;DHT22;44310;48.106;12.008;2023-05-10T00:47:35;18.60;89.70
58519;DHT22;44310;48.106;12.008;2023-05-10T00:50:03;19.00;89.90
58519;DHT22;44310;48.106;12.008;2023-05-10T00:52:31;18.70;89.70
58519;DHT22;44310;48.106;12.008;2023-05-10T00:54:58;18.60;89.80
58519;DHT22;44310;48.106;12.008;2023-05-10T00:57:26;18.70;90.00
58519;DHT22;44310;48.106;12.008;2023-05-10T00:59:54;18.70;90.20
58519;DHT22;44310;48.106;12.008;2023-05-10T01:02:21;18.70;90.20
58519;DHT22;44310;48.106;12.008;2023-05-10T01:04:48;18.50;90.30
58519;DHT22;44310;48.106;12.008;2023-05-10T01:07:16;18.60;90.10
58519;DHT22;44310;48.106;12.008;2023-05-10T01:09:43;18.60;90.00
58519;DHT22;44310;48.106;12.008;2023-05-10T01:12:11;18.60;90.00
58519;DHT22;44310;48.106;12.008;2023-05-10T01:14:39;18.60;90.10
58519;DHT22;44310;48.106;12.008;2023-05-10T01:17:07;18.50;90.00
58519;DHT22;44310;48.106;12.008;2023-05-10T01:19:36;18.50;90.20
58519;DHT22;44310;48.106;12.008;2023-05-10T01:22:18;18.50;90.00
58519;DHT22;44310;48.106;12.008;2023-05-10T01:36:23;18.70;90.90
58519;DHT22;44310;48.106;12.008;2023-05-10T01:38:56;18.70;90.90
58519;DHT22;44310;48.106;12.008;2023-05-10T01:44:29;18.70;91.00
58519;DHT22;44310;48.106;12.008;2023-05-10T01:47:04;18.70;91.00
58519;DHT22;44310;48.106;12.008;2023-05-10T01:49:39;18.70;91.00
58519;DHT22;44310;48.106;12.008;2023-05-10T01:52:10;18.60;91.00
58519;DHT22;44310;48.106;12.008;2023-05-10T01:54:42;18.70;91.10
58519;DHT22;44310;48.106;12.008;2023-05-10T01:57:10;18.70;91.30
58519;DHT22;44310;48.106;12.008;2023-05-10T01:59:43;18.70;91.30
58519;DHT22;44310;48.106;12.008;2023-05-10T02:02:13;18.70;91.40
58519;DHT22;44310;48.106;12.008;2023-05-10T02:04:42;18.70;91.50
58519;DHT22;44310;48.106;12.008;2023-05-10T02:07:11;18.30;91.40
58519;DHT22;44310;48.106;12.008;2023-05-10T02:09:38;18.70;91.50
58519;DHT22;44310;48.106;12.008;2023-05-10T02:12:07;18.70;91.50
58519;DHT22;44310;48.106;12.008;2023-05-10T02:14:36;18.60;91.20
58519;DHT22;44310;48.106;12.008;2023-05-10T02:17:05;18.60;91.10
58519;DHT22;44310;48.106;12.008;2023-05-10T02:19:36;18.60;91.10
58519;DHT22;44310;48.106;12.008;2023-05-10T02:22:05;18.50;91.10
58519;DHT22;44310;48.106;12.008;2023-05-10T02:24:33;18.50;91.00
58519;DHT22;44310;48.106;12.008;2023-05-10T02:27:02;18.50;91.00
58519;DHT22;44310;48.106;12.008;2023-05-10T02:29:31;18.50;90.90
58519;DHT22;44310;48.106;12.008;2023-05-10T02:31:59;18.50;90.80
58519;DHT22;44310;48.106;12.008;2023-05-10T02:34:28;18.50;90.70
58519;DHT22;44310;48.106;12.008;2023-05-10T02:36:55;18.50;90.80
58519;DHT22;44310;48.106;12.008;2023-05-10T02:39:24;18.50;90.80
58519;DHT22;44310;48.106;12.008;2023-05-10T02:41:53;18.40;90.70
58519;DHT22;44310;48.106;12.008;2023-05-10T02:44:22;18.50;91.30
58519;DHT22;44310;48.106;12.008;2023-05-10T02:46:50;18.60;91.50
58519;DHT22;44310;48.106;12.008;2023-05-10T02:49:18;18.60;91.50
58519;DHT22;44310;48.106;12.008;2023-05-10T02:51:51;19.00;91.60
58519;DHT22;44310;48.106;12.008;2023-05-10T02:54:28;18.70;91.50
58519;DHT22;44310;48.106;12.008;2023-05-10T02:57:01;18.70;91.30
58519;DHT22;44310;48.106;12.008;2023-05-10T02:59:31;18.60;91.20
58519;DHT22;44310;48.106;12.008;2023-05-10T03:01:59;18.60;91.10
58519;DHT22;44310;48.106;12.008;2023-05-10T03:04:27;18.60;91.10
58519;DHT22;44310;48.106;12.008;2023-05-10T03:06:54;18.60;91.00
58519;DHT22;44310;48.106;12.008;2023-05-10T03:09:22;18.70;91.00
58519;DHT22;44310;48.106;12.008;2023-05-10T03:12:08;18.60;90.90
58519;DHT22;44310;48.106;12.008;2023-05-10T03:17:15;18.80;90.90
58519;DHT22;44310;48.106;12.008;2023-05-10T03:19:50;18.70;90.80
58519;DHT22;44310;48.106;12.008;2023-05-10T03:22:36;18.60;90.80
58519;DHT22;44310;48.106;12.008;2023-05-10T03:25:07;18.70;90.80
58519;DHT22;44310;48.106;12.008;2023-05-10T03:27:36;18.50;90.70
58519;DHT22;44310;48.106;12.008;2023-05-10T03:30:08;18.60;90.70
58519;DHT22;44310;48.106;12.008;2023-05-10T03:32:35;18.60;90.60
58519;DHT22;44310;48.106;12.008;2023-05-10T03:35:10;18.60;90.60
58519;DHT22;44310;48.106;12.008;2023-05-10T03:37:38;18.60;90.60
58519;DHT22;44310;48.106;12.008;2023-05-10T03:40:07;18.50;90.70
58519;DHT22;44310;48.106;12.008;2023-05-10T03:42:34;18.60;90.80
58519;DHT22;44310;48.106;12.008;2023-05-10T03:45:01;18.70;90.90
58519;DHT22;44310;48.106;12.008;2023-05-10T03:47:29;18.70;91.00
58519;DHT22;44310;48.106;12.008;2023-05-10T03:49:56;18.70;90.90
58519;DHT22;44310;48.106;12.008;2023-05-10T03:52:23;18.60;90.90
58519;DHT22;44310;48.106;12.008;2023-05-10T03:54:50;18.60;90.90
58519;DHT22;44310;48.106;12.008;2023-05-10T03:57:18;18.60;90.90
58519;DHT22;44310;48.106;12.008;2023-05-10T03:59:45;18.10;90.70
58519;DHT22;44310;48.106;12.008;2023-05-10T04:02:12;18.90;90.90
58519;DHT22;44310;48.106;12.008;2023-05-10T04:04:39;18.50;90.70
58519;DHT22;44310;48.106;12.008;2023-05-10T04:07:06;18.50;90.70
58519;DHT22;44310;48.106;12.008;2023-05-10T04:09:33;18.50;90.70
58519;DHT22;44310;48.106;12.008;2023-05-10T04:12:00;18.50;90.60
58519;DHT22;44310;48.106;12.008;2023-05-10T04:14:29;18.50;90.90
58519;DHT22;44310;48.106;12.008;2023-05-10T04:16:56;18.50;90.90
58519;DHT22;44310;48.106;12.008;2023-05-10T04:19:23;18.50;90.90
58519;DHT22;44310;48.106;12.008;2023-05-10T04:21:50;18.50;90.90
58519;DHT22;44310;48.106;12.008;2023-05-10T04:24:17;18.50;90.90
58519;DHT22;44310;48.106;12.008;2023-05-10T04:26:44;18.60;91.60
58519;DHT22;44310;48.106;12.008;2023-05-10T04:29:12;18.70;92.00
58519;DHT22;44310;48.106;12.008;2023-05-10T04:31:39;18.70;92.20
58519;DHT22;44310;48.106;12.008;2023-05-10T04:34:06;18.70;92.30
58519;DHT22;44310;48.106;12.008;2023-05-10T04:36:33;18.70;92.30
58519;DHT22;44310;48.106;12.008;2023-05-10T04:39:03;18.80;92.30
58519;DHT22;44310;48.106;12.008;2023-05-10T04:41:30;18.70;92.30
58519;DHT22;44310;48.106;12.008;2023-05-10T04:43:57;18.70;92.20
58519;DHT22;44310;48.106;12.008;2023-05-10T04:46:24;18.70;92.20
58519;DHT22;44310;48.106;12.008;2023-05-10T04:48:52;18.80;92.30
58519;DHT22;44310;48.106;12.008;2023-05-10T04:51:19;18.70;92.40
58519;DHT22;44310;48.106;12.008;2023-05-10T04:53:47;18.80;92.30
58519;DHT22;44310;48.106;12.008;2023-05-10T04:56:31;18.90;92.20
58519;DHT22;44310;48.106;12.008;2023-05-10T04:58:58;18.70;92.10
58519;DHT22;44310;48.106;12.008;2023-05-10T05:01:25;18.60;92.10
58519;DHT22;44310;48.106;12.008;2023-05-10T05:03:52;18.60;92.00
58519;DHT22;44310;48.106;12.008;2023-05-10T05:06:20;19.20;92.10
58519;DHT22;44310;48.106;12.008;2023-05-10T05:08:51;18.60;92.00
58519;DHT22;44310;48.106;12.008;2023-05-10T05:11:18;18.60;92.10
58519;DHT22;44310;48.106;12.008;2023-05-10T05:13:46;18.60;92.00
58519;DHT22;44310;48.106;12.008;2023-05-10T05:16:13;18.70;92.00
58519;DHT22;44310;48.106;12.008;2023-05-10T05:18:40;18.60;91.90
58519;DHT22;44310;48.106;12.008;2023-05-10T05:21:15;18.60;91.80
58519;DHT22;44310;48.106;12.008;2023-05-10T05:23:43;18.60;91.70
58519;DHT22;44310;48.106;12.008;2023-05-10T05:26:10;18.60;91.60
58519;DHT22;44310;48.106;12.008;2023-05-10T05:28:37;18.60;91.50
58519;DHT22;44310;48.106;12.008;2023-05-10T05:31:05;18.60;91.50
58519;DHT22;44310;48.106;12.008;2023-05-10T05:33:33;18.60;91.50
58519;DHT22;44310;48.106;12.008;2023-05-10T05:36:01;18.60;91.40
58519;DHT22;44310;48.106;12.008;2023-05-10T05:38:28;18.60;91.30
58519;DHT22;44310;48.106;12.008;2023-05-10T05:40:56;18.60;91.30
58519;DHT22;44310;48.106;12.008;2023-05-10T05:43:23;18.60;91.20
58519;DHT22;44310;48.106;12.008;2023-05-10T05:45:52;18.60;91.10
58519;DHT22;44310;48.106;12.008;2023-05-10T05:48:21;18.60;91.10
58519;DHT22;44310;48.106;12.008;2023-05-10T05:50:48;18.50;91.00
58519;DHT22;44310;48.106;12.008;2023-05-10T05:53:15;18.70;91.00
58519;DHT22;44310;48.106;12.008;2023-05-10T05:55:56;18.50;90.80
58519;DHT22;44310;48.106;12.008;2023-05-10T05:58:24;18.60;90.80
58519;DHT22;44310;48.106;12.008;2023-05-10T06:00:51;18.60;90.80
58519;DHT22;44310;48.106;12.008;2023-05-10T06:03:19;18.60;90.80
58519;DHT22;44310;48.106;12.008;2023-05-10T06:05:47;18.60;90.70
58519;DHT22;44310;48.106;12.008;2023-05-10T06:08:14;18.60;90.70
58519;DHT22;44310;48.106;12.008;2023-05-10T06:10:41;18.60;90.70
58519;DHT22;44310;48.106;12.008;2023-05-10T06:13:08;18.60;90.70
58519;DHT22;44310;48.106;12.008;2023-05-10T06:15:36;18.60;90.70
58519;DHT22;44310;48.106;12.008;2023-05-10T06:18:03;18.60;90.60
58519;DHT22;44310;48.106;12.008;2023-05-10T06:20:30;18.60;90.60
58519;DHT22;44310;48.106;12.008;2023-05-10T06:22:58;18.50;90.80
58519;DHT22;44310;48.106;12.008;2023-05-10T06:25:25;18.60;90.50
58519;DHT22;44310;48.106;12.008;2023-05-10T06:27:53;18.40;90.30
58519;DHT22;44310;48.106;12.008;2023-05-10T06:30:25;18.60;90.40
58519;DHT22;44310;48.106;12.008;2023-05-10T06:32:55;18.60;90.40
58519;DHT22;44310;48.106;12.008;2023-05-10T06:35:23;18.80;90.30
58519;DHT22;44310;48.106;12.008;2023-05-10T06:37:50;18.70;90.30
58519;DHT22;44310;48.106;12.008;2023-05-10T06:40:18;18.60;90.30
58519;DHT22;44310;48.106;12.008;2023-05-10T06:42:46;18.60;90.30
58519;DHT22;44310;48.106;12.008;2023-05-10T06:45:16;18.60;90.40
58519;DHT22;44310;48.106;12.008;2023-05-10T06:47:43;18.70;90.50
58519;DHT22;44310;48.106;12.008;2023-05-10T06:50:11;18.70;90.60
58519;DHT22;44310;48.106;12.008;2023-05-10T06:52:41;18.70;90.70
58519;DHT22;44310;48.106;12.008;2023-05-10T06:55:08;18.70;90.70
58519;DHT22;44310;48.106;12.008;2023-05-10T06:57:35;18.70;90.70
58519;DHT22;44310;48.106;12.008;2023-05-10T07:00:03;19.40;91.00
58519;DHT22;44310;48.106;12.008;2023-05-10T07:02:34;18.70;90.80
58519;DHT22;44310;48.106;12.008;2023-05-10T07:05:01;18.70;90.80
58519;DHT22;44310;48.106;12.008;2023-05-10T07:07:29;18.60;90.80
58519;DHT22;44310;48.106;12.008;2023-05-10T07:09:57;18.80;90.90
58519;DHT22;44310;48.106;12.008;2023-05-10T07:12:24;18.60;90.70
58519;DHT22;44310;48.106;12.008;2023-05-10T07:14:52;18.60;90.60
58519;DHT22;44310;48.106;12.008;2023-05-10T07:17:19;18.60;90.60
58519;DHT22;44310;48.106;12.008;2023-05-10T07:19:46;18.60;90.50
58519;DHT22;44310;48.106;12.008;2023-05-10T07:22:14;18.60;90.60
58519;DHT22;44310;48.106;12.008;2023-05-10T07:24:42;18.70;90.70
58519;DHT22;44310;48.106;12.008;2023-05-10T07:27:11;18.50;90.60
58519;DHT22;44310;48.106;12.008;2023-05-10T07:29:39;18.50;90.60
58519;DHT22;44310;48.106;12.008;2023-05-10T07:32:06;18.20;90.70
58519;DHT22;44310;48.106;12.008;2023-05-10T07:34:34;18.60;91.00
58519;DHT22;44310;48.106;12.008;2023-05-10T07:37:01;18.60;91.00
58519;DHT22;44310;48.106;12.008;2023-05-10T07:39:28;18.60;91.00
58519;DHT22;44310;48.106;12.008;2023-05-10T07:41:55;18.60;91.00
58519;DHT22;44310;48.106;12.008;2023-05-10T07:44:23;18.60;91.00
58519;DHT22;44310;48.106;12.008;2023-05-10T07:46:50;18.70;90.90
58519;DHT22;44310;48.106;12.008;2023-05-10T07:49:17;18.70;91.00
58519;DHT22;44310;48.106;12.008;2023-05-10T07:51:44;18.60;90.90
58519;DHT22;44310;48.106;12.008;2023-05-10T07:54:11;18.60;90.90
58519;DHT22;44310;48.106;12.008;2023-05-10T07:56:39;18.60;90.80
58519;DHT22;44310;48.106;12.008;2023-05-10T07:59:15;18.60;90.80
58519;DHT22;44310;48.106;12.008;2023-05-10T08:01:42;18.70;90.80
58519;DHT22;44310;48.106;12.008;2023-05-10T08:04:10;18.70;90.80
58519;DHT22;44310;48.106;12.008;2023-05-10T08:06:37;18.70;90.80
58519;DHT22;44310;48.106;12.008;2023-05-10T08:09:04;18.80;90.80
58519;DHT22;44310;48.106;12.008;2023-05-10T08:11:31;18.70;90.70
58519;DHT22;44310;48.106;12.008;2023-05-10T08:14:01;18.60;90.70
58519;DHT22;44310;48.106;12.008;2023-05-10T08:16:28;18.70;90.80
58519;DHT22;44310;48.106;12.008;2023-05-10T08:18:56;18.70;90.70
58519;DHT22;44310;48.106;12.008;2023-05-10T08:21:23;18.70;90.80
58519;DHT22;44310;48.106;12.008;2023-05-10T08:23:50;18.60;90.60
58519;DHT22;44310;48.106;12.008;2023-05-10T08:26:17;18.60;90.60
58519;DHT22;44310;48.106;12.008;2023-05-10T08:28:44;18.60;90.60
58519;DHT22;44310;48.106;12.008;2023-05-10T08:31:12;18.60;90.80
58519;DHT22;44310;48.106;12.008;2023-05-10T08:33:39;18.60;90.80
58519;DHT22;44310;48.106;12.008;2023-05-10T08:36:08;18.60;90.80
58519;DHT22;44310;48.106;12.008;2023-05-10T08:38:37;18.60;90.80
58519;DHT22;44310;48.106;12.008;2023-05-10T08:41:05;18.50;90.80
58519;DHT22;44310;48.106;12.008;2023-05-10T08:43:33;18.50;90.90
58519;DHT22;44310;48.106;12.008;2023-05-10T08:46:04;18.60;91.10
58519;DHT22;44310;48.106;12.008;2023-05-10T08:48:34;18.60;90.60
58519;DHT22;44310;48.106;12.008;2023-05-10T08:51:02;18.50;90.10
58519;DHT22;44310;48.106;12.008;2023-05-10T08:53:33;18.40;89.40
58519;DHT22;44310;48.106;12.008;2023-05-10T08:56:02;18.30;90.10
58519;DHT22;44310;48.106;12.008;2023-05-10T08:58:30;18.40;90.90
58519;DHT22;44310;48.106;12.008;2023-05-10T09:00:58;18.40;90.80
58519;DHT22;44310;48.106;12.008;2023-05-10T09:03:26;18.50;90.90
58519;DHT22;44310;48.106;12.008;2023-05-10T09:05:53;18.40;90.80
58519;DHT22;44310;48.106;12.008;2023-05-10T09:08:26;18.50;91.00
58519;DHT22;44310;48.106;12.008;2023-05-10T09:10:54;18.60;91.00
58519;DHT22;44310;48.106;12.008;2023-05-10T09:13:23;18.60;90.90
58519;DHT22;44310;48.106;12.008;2023-05-10T09:15:50;18.70;90.60
58519;DHT22;44310;48.106;12.008;2023-05-10T09:18:18;18.60;90.20
58519;DHT22;44310;48.106;12.008;2023-05-10T09:20:45;18.60;89.90
58519;DHT22;44310;48.106;12.008;2023-05-10T09:23:12;18.30;89.70
58519;DHT22;44310;48.106;12.008;2023-05-10T09:25:41;18.10;89.30
58519;DHT22;44310;48.106;12.008;2023-05-10T09:28:09;19.30;90.10
58519;DHT22;44310;48.106;12.008;2023-05-10T09:30:36;18.00;89.70
58519;DHT22;44310;48.106;12.008;2023-05-10T09:33:04;17.80;89.80
58519;DHT22;44310;48.106;12.008;2023-05-10T09:35:32;17.80;90.60
58519;DHT22;44310;48.106;12.008;2023-05-10T09:38:04;17.90;91.10
58519;DHT22;44310;48.106;12.008;2023-05-10T09:40:32;18.00;91.20
58519;DHT22;44310;48.106;12.008;2023-05-10T09:43:04;18.20;91.20
58519;DHT22;44310;48.106;12.008;2023-05-10T09:45:34;18.10;91.10
58519;DHT22;44310;48.106;12.008;2023-05-10T09:48:05;18.20;91.00
58519;DHT22;44310;48.106;12.008;2023-05-10T09:50:33;18.20;91.00
58519;DHT22;44310;48.106;12.008;2023-05-10T09:53:02;18.20;90.90
58519;DHT22;44310;48.106;12.008;2023-05-10T09:58:07;18.20;90.80
58519;DHT22;44310;48.106;12.008;2023-05-10T10:00:39;18.20;90.90
58519;DHT22;44310;48.106;12.008;2023-05-10T10:03:15;17.90;90.80
58519;DHT22;44310;48.106;12.008;2023-05-10T10:05:43;18.30;90.80
58519;DHT22;44310;48.106;12.008;2023-05-10T10:08:11;18.30;90.70
58519;DHT22;44310;48.106;12.008;2023-05-10T10:10:39;18.30;90.70
58519;DHT22;44310;48.106;12.008;2023-05-10T10:13:07;18.10;90.60
58519;DHT22;44310;48.106;12.008;2023-05-10T10:15:35;18.30;90.70
58519;DHT22;44310;48.106;12.008;2023-05-10T10:18:02;18.30;90.70
58519;DHT22;44310;48.106;12.008;2023-05-10T10:20:33;18.30;90.70
58519;DHT22;44310;48.106;12.008;2023-05-10T10:23:00;18.30;90.70
58519;DHT22;44310;48.106;12.008;2023-05-10T10:25:27;18.30;90.60
58519;DHT22;44310;48.106;12.008;2023-05-10T10:28:16;18.30;90.50
58519;DHT22;44310;48.106;12.008;2023-05-10T10:30:50;18.30;90.50
58519;DHT22;44310;48.106;12.008;2023-05-10T10:33:48;18.20;90.40
58519;DHT22;44310;48.106;12.008;2023-05-10T10:36:19;18.20;90.40
58519;DHT22;44310;48.106;12.008;2023-05-10T10:41:33;18.30;90.30
58519;DHT22;44310;48.106;12.008;2023-05-10T10:52:28;18.20;90.20
58519;DHT22;44310;48.106;12.008;2023-05-10T10:57:31;18.20;90.10
58519;DHT22;44310;48.106;12.008;2023-05-10T11:00:31;18.30;90.10
58519;DHT22;44310;48.106;12.008;2023-05-10T11:03:08;18.20;90.10
58519;DHT22;44310;48.106;12.008;2023-05-10T11:05:44;18.20;90.00
58519;DHT22;44310;48.106;12.008;2023-05-10T11:08:17;18.20;90.00
58519;DHT22;44310;48.106;12.008;2023-05-10T11:10:52;18.20;90.00
58519;DHT22;44310;48.106;12.008;2023-05-10T11:16:12;18.20;90.00
58519;DHT22;44310;48.106;12.008;2023-05-10T11:18:40;18.10;90.00
58519;DHT22;44310;48.106;12.008;2023-05-10T11:21:09;18.10;90.00
58519;DHT22;44310;48.106;12.008;2023-05-10T11:26:10;18.10;90.10
58519;DHT22;44310;48.106;12.008;2023-05-10T11:28:42;17.70;89.90
58519;DHT22;44310;48.106;12.008;2023-05-10T11:31:09;18.60;90.10
58519;DHT22;44310;48.106;12.008;2023-05-10T11:33:44;18.10;90.00
58519;DHT22;44310;48.106;12.008;2023-05-10T11:36:17;18.20;90.20
58519;DHT22;44310;48.106;12.008;2023-05-10T11:38:45;18.20;90.20
58519;DHT22;44310;48.106;12.008;2023-05-10T11:41:13;18.30;90.20
58519;DHT22;44310;48.106;12.008;2023-05-10T11:43:41;18.20;90.10
58519;DHT22;44310;48.106;12.008;2023-05-10T11:46:11;18.20;90.00
58519;DHT22;44310;48.106;12.008;2023-05-10T11:48:39;18.20;89.80
58519;DHT22;44310;48.106;12.008;2023-05-10T11:51:10;17.70;89.40
58519;DHT22;44310;48.106;12.008;2023-05-10T11:53:38;18.20;89.60
58519;DHT22;44310;48.106;12.008;2023-05-10T11:56:06;18.20;89.40
58519;DHT22;44310;48.106;12.008;2023-05-10T11:58:34;18.20;89.30
58519;DHT22;44310;48.106;12.008;2023-05-10T12:01:03;18.20;89.30
58519;DHT22;44310;48.106;12.008;2023-05-10T12:03:30;18.20;89.70
58519;DHT22;44310;48.106;12.008;2023-05-10T12:05:58;18.20;89.80
58519;DHT22;44310;48.106;12.008;2023-05-10T12:08:27;17.70;89.20
58519;DHT22;44310;48.106;12.008;2023-05-10T12:11:07;18.40;89.40
58519;DHT22;44310;48.106;12.008;2023-05-10T12:13:43;18.20;89.30
58519;DHT22;44310;48.106;12.008;2023-05-10T12:16:18;18.20;89.20
58519;DHT22;44310;48.106;12.008;2023-05-10T12:18:48;18.20;89.10
58519;DHT22;44310;48.106;12.008;2023-05-10T12:21:16;18.20;89.00
58519;DHT22;44310;48.106;12.008;2023-05-10T12:23:45;18.30;88.90
58519;DHT22;44310;48.106;12.008;2023-05-10T12:26:14;18.30;88.90
58519;DHT22;44310;48.106;12.008;2023-05-10T12:28:41;17.90;88.60
58519;DHT22;44310;48.106;12.008;2023-05-10T12:31:08;18.20;88.70
58519;DHT22;44310;48.106;12.008;2023-05-10T12:33:45;18.20;88.70
58519;DHT22;44310;48.106;12.008;2023-05-10T12:36:14;18.20;88.60
58519;DHT22;44310;48.106;12.008;2023-05-10T12:38:45;18.20;88.50
58519;DHT22;44310;48.106;12.008;2023-05-10T12:41:17;18.20;88.40
58519;DHT22;44310;48.106;12.008;2023-05-10T12:43:45;17.80;88.10
58519;DHT22;44310;48.106;12.008;2023-05-10T12:46:16;18.20;88.20
58519;DHT22;44310;48.106;12.008;2023-05-10T12:48:45;17.70;87.80
58519;DHT22;44310;48.106;12.008;2023-05-10T12:51:14;18.30;87.90
58519;DHT22;44310;48.106;12.008;2023-05-10T12:53:44;18.60;87.50
58519;DHT22;44310;48.106;12.008;2023-05-10T12:56:15;17.80;87.00
58519;DHT22;44310;48.106;12.008;2023-05-10T12:58:42;18.10;87.50
58519;DHT22;44310;48.106;12.008;2023-05-10T13:01:15;18.00;87.60
58519;DHT22;44310;48.106;12.008;2023-05-10T13:03:42;18.10;87.60
58519;DHT22;44310;48.106;12.008;2023-05-10T13:06:13;18.10;87.60
58519;DHT22;44310;48.106;12.008;2023-05-10T13:08:40;18.10;87.60
58519;DHT22;44310;48.106;12.008;2023-05-10T13:11:07;18.10;87.50
58519;DHT22;44310;48.106;12.008;2023-05-10T13:13:34;18.10;87.40
58519;DHT22;44310;48.106;12.008;2023-05-10T13:16:01;18.20;87.60
58519;DHT22;44310;48.106;12.008;2023-05-10T13:18:28;18.20;87.50
58519;DHT22;44310;48.106;12.008;2023-05-10T13:20:55;18.20;87.60
58519;DHT22;44310;48.106;12.008;2023-05-10T13:23:22;18.10;87.40
58519;DHT22;44310;48.106;12.008;2023-05-10T13:25:50;18.10;87.30
58519;DHT22;44310;48.106;12.008;2023-05-10T13:28:17;18.20;87.30
58519;DHT22;44310;48.106;12.008;2023-05-10T13:30:44;18.10;87.20
58519;DHT22;44310;48.106;12.008;2023-05-10T13:33:11;18.10;87.40
58519;DHT22;44310;48.106;12.008;2023-05-10T13:35:38;18.20;87.40
58519;DHT22;44310;48.106;12.008;2023-05-10T13:38:05;18.20;87.30
58519;DHT22;44310;48.106;12.008;2023-05-10T13:40:34;18.10;87.20
58519;DHT22;44310;48.106;12.008;2023-05-10T13:43:02;18.10;87.70
58519;DHT22;44310;48.106;12.008;2023-05-10T13:45:29;18.40;87.10
58519;DHT22;44310;48.106;12.008;2023-05-10T13:47:57;18.20;87.00
58519;DHT22;44310;48.106;12.008;2023-05-10T13:50:24;18.10;86.90
58519;DHT22;44310;48.106;12.008;2023-05-10T13:52:51;18.20;86.90
58519;DHT22;44310;48.106;12.008;2023-05-10T13:55:18;18.80;87.10
58519;DHT22;44310;48.106;12.008;2023-05-10T13:57:46;18.20;86.90
58519;DHT22;44310;48.106;12.008;2023-05-10T14:00:13;18.20;86.70
58519;DHT22;44310;48.106;12.008;2023-05-10T14:02:40;18.20;86.70
58519;DHT22;44310;48.106;12.008;2023-05-10T14:05:07;18.20;86.70
58519;DHT22;44310;48.106;12.008;2023-05-10T14:07:35;18.20;86.50
58519;DHT22;44310;48.106;12.008;2023-05-10T14:10:02;18.20;86.50
58519;DHT22;44310;48.106;12.008;2023-05-10T14:12:29;18.10;87.10
58519;DHT22;44310;48.106;12.008;2023-05-10T14:14:57;18.00;86.20
58519;DHT22;44310;48.106;12.008;2023-05-10T14:17:25;18.10;88.20
58519;DHT22;44310;48.106;12.008;2023-05-10T14:19:52;18.20;89.50
58519;DHT22;44310;48.106;12.008;2023-05-10T14:22:20;18.30;90.10
58519;DHT22;44310;48.106;12.008;2023-05-10T14:24:47;18.70;90.80
58519;DHT22;44310;48.106;12.008;2023-05-10T14:27:14;18.50;91.30
58519;DHT22;44310;48.106;12.008;2023-05-10T14:29:42;18.50;91.70
58519;DHT22;44310;48.106;12.008;2023-05-10T14:32:09;18.50;91.90
58519;DHT22;44310;48.106;12.008;2023-05-10T14:34:36;18.60;92.10
58519;DHT22;44310;48.106;12.008;2023-05-10T14:37:03;18.60;92.40
58519;DHT22;44310;48.106;12.008;2023-05-10T14:39:31;18.70;92.50
58519;DHT22;44310;48.106;12.008;2023-05-10T14:41:58;18.60;92.60
58519;DHT22;44310;48.106;12.008;2023-05-10T14:44:25;18.60;92.70
58519;DHT22;44310;48.106;12.008;2023-05-10T14:46:53;18.70;92.80
58519;DHT22;44310;48.106;12.008;2023-05-10T14:49:20;18.70;92.90
58519;DHT22;44310;48.106;12.008;2023-05-10T14:51:49;18.70;93.00
58519;DHT22;44310;48.106;12.008;2023-05-10T14:54:16;18.60;93.00
58519;DHT22;44310;48.106;12.008;2023-05-10T14:56:44;18.60;93.00
58519;DHT22;44310;48.106;12.008;2023-05-10T14:59:11;18.60;93.10
58519;DHT22;44310;48.106;12.008;2023-05-10T15:01:39;18.60;93.20
58519;DHT22;44310;48.106;12.008;2023-05-10T15:04:09;18.60;93.30
58519;DHT22;44310;48.106;12.008;2023-05-10T15:06:36;18.70;93.40
58519;DHT22;44310;48.106;12.008;2023-05-10T15:09:03;18.70;93.30
58519;DHT22;44310;48.106;12.008;2023-05-10T15:11:31;18.60;93.30
58519;DHT22;44310;48.106;12.008;2023-05-10T15:13:58;18.60;93.10
58519;DHT22;44310;48.106;12.008;2023-05-10T15:16:25;18.60;93.10
58519;DHT22;44310;48.106;12.008;2023-05-10T15:18:52;18.00;92.90
58519;DHT22;44310;48.106;12.008;2023-05-10T15:21:20;18.60;93.00
58519;DHT22;44310;48.106;12.008;2023-05-10T15:23:47;18.60;93.30
58519;DHT22;44310;48.106;12.008;2023-05-10T15:26:14;18.60;93.10
58519;DHT22;44310;48.106;12.008;2023-05-10T15:28:42;18.60;93.00
58519;DHT22;44310;48.106;12.008;2023-05-10T15:31:09;18.60;93.30
58519;DHT22;44310;48.106;12.008;2023-05-10T15:33:37;18.60;92.90
58519;DHT22;44310;48.106;12.008;2023-05-10T15:36:05;18.60;92.80
58519;DHT22;44310;48.106;12.008;2023-05-10T15:38:33;18.50;92.70
58519;DHT22;44310;48.106;12.008;2023-05-10T15:41:00;18.60;92.70
58519;DHT22;44310;48.106;12.008;2023-05-10T15:43:27;18.50;92.70
58519;DHT22;44310;48.106;12.008;2023-05-10T15:45:55;18.50;92.50
58519;DHT22;44310;48.106;12.008;2023-05-10T15:48:22;19.00;92.60
58519;DHT22;44310;48.106;12.008;2023-05-10T15:50:49;18.70;92.40
58519;DHT22;44310;48.106;12.008;2023-05-10T15:53:16;18.50;92.20
58519;DHT22;44310;48.106;12.008;2023-05-10T15:55:43;18.50;92.00
58519;DHT22;44310;48.106;12.008;2023-05-10T15:58:10;18.50;91.80
58519;DHT22;44310;48.106;12.008;2023-05-10T16:00:38;18.50;91.60
58519;DHT22;44310;48.106;12.008;2023-05-10T16:03:05;18.70;91.80